Time;durP1;ratioP1;P1;durP2;ratioP2;P2;SDS_P1;SDS_P2;PMS_P1;PMS_P2;Temp;Humidity;BMP_temperature;BMP_pressure;BME280_temperature;BME280_humidity;BME280_pressure;Samples;Min_cycle;Max_cycle;Signal;HPM_P1;HPM_P2
2021/12/29 00:01:42;;;;;;;;;13.25;7.50;;;;;13.21;60.22;100658.16;6312023;22;45856;-85
2021/12/29 00:04:07;;;;;;;;;6.75;5.50;;;;;13.18;60.42;100674.13;6312843;22;48148;-83
2021/12/29 00:06:33;;;;;;;;;13.25;8.25;;;;;13.15;60.27;100674.28;6341356;22;45165;-84
2021/12/29 00:08:59;;;;;;;;;5.50;4.25;;;;;13.17;60.25;100682.97;6341603;22;45190;-83
2021/12/29 00:11:26;;;;;;;;;6.75;4.25;;;;;13.18;60.68;100682.06;6341269;22;45385;-82
2021/12/29 00:13:51;;;;;;;;;8.50;5.25;;;;;13.15;60.83;100677.78;6341260;22;45497;-80
2021/12/29 00:16:16;;;;;;;;;10.25;5.50;;;;;13.17;60.82;100688.25;6341324;22;45077;-80
2021/12/29 00:18:42;;;;;;;;;6.00;4.25;;;;;13.19;60.74;100685.53;6313473;22;45361;-78
2021/12/29 00:21:08;;;;;;;;;6.50;4.00;;;;;13.15;61.23;100692.75;6340330;22;45231;-80
2021/12/29 00:23:34;;;;;;;;;9.00;4.75;;;;;13.16;61.01;100682.09;6341301;22;45321;-80
2021/12/29 00:26:00;;;;;;;;;7.75;6.00;;;;;13.16;61.36;100690.03;6341375;22;45649;-80
2021/12/29 00:28:26;;;;;;;;;8.75;5.50;;;;;13.15;61.33;100722.63;6341292;22;45372;-84
2021/12/29 00:30:51;;;;;;;;;11.00;6.75;;;;;13.18;61.70;100741.88;6340614;22;45361;-85
2021/12/29 00:33:17;;;;;;;;;6.75;5.00;;;;;13.18;61.74;100737.47;6340869;22;46361;-85
2021/12/29 00:35:43;;;;;;;;;15.00;6.50;;;;;13.20;61.96;100737.41;6338833;22;45325;-85
2021/12/29 00:38:10;;;;;;;;;5.75;3.25;;;;;13.18;61.78;100739.25;6340862;22;45306;-83
2021/12/29 00:40:37;;;;;;;;;7.25;4.00;;;;;13.18;61.58;100745.41;6341207;22;45227;-83
2021/12/29 00:43:05;;;;;;;;;9.50;5.25;;;;;13.18;62.07;100739.25;6340445;22;45394;-85
2021/12/29 00:45:32;;;;;;;;;13.00;8.00;;;;;13.17;61.96;100756.88;6340371;22;45520;-86
2021/12/29 00:47:58;;;;;;;;;6.00;4.25;;;;;13.13;62.37;100750.00;6340038;22;45226;-87
2021/12/29 00:50:24;;;;;;;;;12.50;6.25;;;;;13.11;62.23;100765.91;6312375;22;46156;-88
2021/12/29 00:52:50;;;;;;;;;9.50;6.25;;;;;13.11;62.44;100757.16;6341080;22;45806;-88
2021/12/29 00:55:17;;;;;;;;;8.50;6.75;;;;;13.08;62.66;100752.84;6341253;22;45198;-90
2021/12/29 00:57:43;;;;;;;;;9.25;4.50;;;;;13.08;62.71;100767.81;6340298;22;45213;-88
2021/12/29 01:00:14;;;;;;;;;10.50;5.50;;;;;13.05;62.55;100759.13;6340773;22;45587;-86
2021/12/29 01:02:39;;;;;;;;;12.25;7.50;;;;;13.11;62.49;100762.44;6312271;22;46318;-87
2021/12/29 01:05:07;;;;;;;;;9.50;6.00;;;;;13.09;62.76;100751.09;6340175;22;45148;-87
2021/12/29 01:07:32;;;;;;;;;12.00;6.75;;;;;13.05;62.95;100748.56;6313232;22;45382;-87
2021/12/29 01:09:59;;;;;;;;;6.25;5.50;;;;;13.08;62.62;100757.28;6340791;22;45342;-88
2021/12/29 01:12:25;;;;;;;;;10.50;5.00;;;;;13.03;62.83;100752.19;6312915;22;47297;-88
2021/12/29 01:14:54;;;;;;;;;11.75;4.75;;;;;13.05;62.57;100774.94;6339707;22;45346;-88
2021/12/29 01:17:23;;;;;;;;;7.00;5.50;;;;;13.03;63.24;100771.53;6339969;22;45341;-88
2021/12/29 01:19:50;;;;;;;;;9.75;5.00;;;;;13.06;62.88;100781.09;6340964;22;45298;-88
2021/12/29 01:22:16;;;;;;;;;5.75;3.50;;;;;13.07;62.82;100780.16;6340392;22;45364;-87
2021/12/29 01:24:43;;;;;;;;;12.25;8.25;;;;;13.09;62.59;100790.66;6341123;22;45355;-88
2021/12/29 01:27:09;;;;;;;;;5.00;4.00;;;;;13.09;62.77;100782.75;6340566;22;45240;-87
2021/12/29 01:29:35;;;;;;;;;13.00;7.50;;;;;13.09;63.04;100782.75;6340880;22;45080;-87
2021/12/29 01:32:01;;;;;;;;;9.00;5.50;;;;;13.09;62.76;100780.94;6340623;22;46430;-89
2021/12/29 01:34:27;;;;;;;;;4.50;2.50;;;;;13.10;63.04;100768.63;6340973;22;45565;-87
2021/12/29 01:36:53;;;;;;;;;9.00;7.50;;;;;13.12;62.94;100772.03;6340770;22;45520;-86
2021/12/29 01:39:20;;;;;;;;;7.25;3.50;;;;;13.13;62.84;100774.63;6340929;22;45311;-86
2021/12/29 01:41:48;;;;;;;;;7.75;6.25;;;;;13.16;62.90;100768.38;6340614;22;45625;-85
2021/12/29 01:44:16;;;;;;;;;11.00;7.50;;;;;13.20;63.01;100769.94;6340782;22;45508;-85
2021/12/29 01:46:43;;;;;;;;;6.75;3.75;;;;;13.21;62.92;100768.16;6342198;22;45219;-85
2021/12/29 01:49:10;;;;;;;;;8.25;3.75;;;;;13.22;62.87;100761.94;6344421;22;45241;-85
2021/12/29 01:51:37;;;;;;;;;7.75;3.50;;;;;13.24;62.85;100779.41;6344259;22;45372;-85
2021/12/29 01:54:23;;;;;;;;;7.25;5.25;;;;;13.24;63.12;100768.88;6344071;22;45155;-84
2021/12/29 01:56:50;;;;;;;;;7.75;7.75;;;;;13.24;63.25;100765.38;6343861;22;45158;-85
2021/12/29 01:59:16;;;;;;;;;7.00;3.75;;;;;13.26;63.01;100777.56;6344091;22;45483;-84
2021/12/29 02:01:42;;;;;;;;;5.75;3.50;;;;;13.29;63.38;100784.50;6343999;22;45334;-87
2021/12/29 02:04:07;;;;;;;;;7.00;6.00;;;;;13.30;63.14;100785.34;6344266;22;45372;-88
2021/12/29 02:06:34;;;;;;;;;12.75;8.00;;;;;13.29;63.16;100787.13;6343710;22;45771;-87
2021/12/29 02:08:59;;;;;;;;;12.50;8.50;;;;;13.30;63.09;100788.88;6344031;22;45246;-87
2021/12/29 02:11:29;;;;;;;;;7.25;6.00;;;;;13.30;63.26;100804.69;6344026;22;45493;-88
2021/12/29 02:14:03;;;;;;;;;10.50;6.25;;;;;13.32;63.33;100801.97;6343828;22;45105;-89
2021/12/29 02:16:29;;;;;;;;;9.25;7.25;;;;;13.34;63.20;100794.84;6343945;22;45151;-85
2021/12/29 02:19:01;;;;;;;;;8.00;6.75;;;;;13.32;63.37;100791.44;6344099;22;45284;-84
2021/12/29 02:21:29;;;;;;;;;7.00;5.75;;;;;13.31;63.49;100782.63;6342882;22;45298;-84
2021/12/29 02:26:26;;;;;;;;;12.50;6.00;;;;;13.33;63.33;100779.97;6343782;22;45289;-85
2021/12/29 02:28:55;;;;;;;;;9.00;7.25;;;;;13.33;63.46;100786.09;6343621;22;45603;-85
2021/12/29 02:31:21;;;;;;;;;8.75;5.50;;;;;13.31;63.21;100780.00;6343654;22;45161;-84
2021/12/29 02:33:46;;;;;;;;;12.00;5.75;;;;;13.32;63.42;100780.88;6343773;22;45167;-84
2021/12/29 02:36:12;;;;;;;;;14.25;7.00;;;;;13.32;63.43;100788.78;6343877;22;45093;-86
2021/12/29 02:38:44;;;;;;;;;10.50;7.50;;;;;13.33;63.52;100787.88;6343504;22;45475;-84
2021/12/29 02:41:10;;;;;;;;;10.75;5.25;;;;;13.32;63.43;100788.78;6343972;22;46122;-86
2021/12/29 02:43:38;;;;;;;;;11.25;5.50;;;;;13.33;63.40;100790.50;6343793;22;45156;-85
2021/12/29 02:46:11;;;;;;;;;6.00;4.50;;;;;13.33;63.67;100782.59;6343818;22;45425;-86
2021/12/29 02:48:38;;;;;;;;;10.50;8.25;;;;;13.32;63.58;100780.88;6343163;22;45161;-84
2021/12/29 02:51:07;;;;;;;;;5.00;3.75;;;;;13.32;63.78;100783.50;6343278;22;45410;-84
2021/12/29 02:53:34;;;;;;;;;5.00;4.50;;;;;13.31;63.51;100773.88;6343312;22;45556;-84
2021/12/29 02:55:59;;;;;;;;;9.75;6.50;;;;;13.30;63.70;100774.81;6343822;22;45147;-85
2021/12/29 02:58:25;;;;;;;;;6.50;4.00;;;;;13.30;63.88;100778.31;6341926;22;45081;-86
2021/12/29 03:00:53;;;;;;;;;12.25;7.00;;;;;13.30;63.60;100777.44;6342034;22;45368;-92
2021/12/29 03:03:25;;;;;;;;;8.00;4.50;;;;;13.30;63.46;100785.34;6342036;22;45360;-91
2021/12/29 03:05:51;;;;;;;;;9.00;3.00;;;;;13.32;63.83;100778.22;6313487;22;45290;-91
2021/12/29 03:08:18;;;;;;;;;12.75;6.75;;;;;13.32;63.88;100787.00;6312849;22;46200;-90
2021/12/29 03:10:45;;;;;;;;;7.75;5.50;;;;;13.29;64.12;100771.28;6314077;22;46995;-89
2021/12/29 03:13:11;;;;;;;;;5.75;3.50;;;;;13.31;64.32;100780.00;6341366;22;45368;-85
2021/12/29 03:15:38;;;;;;;;;8.00;4.50;;;;;13.32;64.34;100779.09;6341882;22;45235;-87
2021/12/29 03:18:05;;;;;;;;;9.50;6.25;;;;;13.30;64.51;100780.09;6313081;22;46208;-86
2021/12/29 03:20:30;;;;;;;;;6.75;4.00;;;;;13.29;64.51;100781.84;6341176;22;45341;-87
2021/12/29 03:22:57;;;;;;;;;8.50;6.50;;;;;13.31;64.61;100779.16;6313279;22;45168;-88
2021/12/29 03:25:24;;;;;;;;;9.00;3.50;;;;;13.30;65.08;100777.44;6313475;22;45418;-87
2021/12/29 03:27:50;;;;;;;;;13.75;4.50;;;;;13.29;65.03;100771.28;6340986;22;45491;-86
2021/12/29 03:30:16;;;;;;;;;5.00;3.75;;;;;13.28;65.09;100773.06;6341233;22;45227;-86
2021/12/29 03:32:51;;;;;;;;;6.75;6.00;;;;;13.26;64.96;100780.22;6340534;22;45336;-86
2021/12/29 03:35:17;;;;;;;;;10.50;4.50;;;;;13.25;65.10;100788.22;6341592;22;45242;-86
2021/12/29 03:37:42;;;;;;;;;11.50;6.25;;;;;13.26;64.99;100787.28;6341780;22;45341;-86
2021/12/29 03:40:09;;;;;;;;;7.25;5.00;;;;;13.25;65.09;100781.16;6340998;22;46081;-86
2021/12/29 03:42:35;;;;;;;;;5.50;5.50;;;;;13.24;65.51;100784.69;6340994;22;45294;-87
2021/12/29 03:45:00;;;;;;;;;6.25;5.00;;;;;13.24;64.93;100776.78;6341536;22;45218;-87
2021/12/29 03:47:26;;;;;;;;;7.00;4.25;;;;;13.22;65.43;100773.34;6341260;22;45422;-88
2021/12/29 03:49:51;;;;;;;;;5.50;4.00;;;;;13.23;65.44;100775.09;6341085;22;45163;-87
2021/12/29 03:52:17;;;;;;;;;8.50;4.25;;;;;13.25;65.57;100772.38;6341692;22;45219;-87
2021/12/29 03:54:42;;;;;;;;;9.25;5.75;;;;;13.23;65.48;100782.13;6313342;22;45526;-85
2021/12/29 03:57:07;;;;;;;;;9.50;4.25;;;;;13.24;65.49;100768.00;6341484;22;45142;-89
2021/12/29 03:59:33;;;;;;;;;6.50;3.50;;;;;13.21;65.84;100765.53;6341187;22;45304;-87
2021/12/29 04:02:00;;;;;;;;;3.00;3.00;;;;;13.21;65.86;100760.25;6341302;22;45403;-86
2021/12/29 04:04:25;;;;;;;;;6.25;4.25;;;;;13.18;65.71;100758.59;6313137;22;45367;-86
2021/12/29 04:06:51;;;;;;;;;6.25;5.00;;;;;13.20;65.72;100764.66;6341180;22;45461;-89
2021/12/29 04:09:16;;;;;;;;;4.50;3.50;;;;;13.18;65.73;100761.22;6312265;22;46743;-86
2021/12/29 04:11:42;;;;;;;;;6.00;2.25;;;;;13.19;65.93;100752.38;6341499;22;45165;-89
2021/12/29 04:14:07;;;;;;;;;12.75;4.50;;;;;13.20;65.84;100755.88;6313341;22;45370;-90
2021/12/29 04:16:40;;;;;;;;;7.50;3.25;;;;;13.18;65.63;100755.09;6341027;22;45337;-88
2021/12/29 04:19:06;;;;;;;;;6.50;2.50;;;;;13.16;65.60;100763.09;6341433;22;46425;-87
2021/12/29 04:21:37;;;;;;;;;4.25;3.25;;;;;13.17;65.85;100772.69;6340673;22;45560;-87
2021/12/29 04:24:04;;;;;;;;;4.00;2.75;;;;;13.16;65.93;100773.63;6341013;22;45234;-87
2021/12/29 04:26:32;;;;;;;;;4.00;4.00;;;;;13.16;66.08;100773.63;6340993;22;45393;-89
2021/12/29 04:28:58;;;;;;;;;6.00;3.50;;;;;13.19;66.40;100772.63;6340358;22;46228;-88
2021/12/29 04:31:29;;;;;;;;;9.75;3.75;;;;;13.16;66.47;100771.84;6313141;22;45194;-93
2021/12/29 04:33:54;;;;;;;;;3.50;2.25;;;;;13.16;66.81;100771.84;6343621;22;45294;-92
2021/12/29 04:36:26;;;;;;;;;9.75;3.00;;;;;13.16;66.71;100777.09;6344432;22;45242;-90
2021/12/29 04:38:57;;;;;;;;;4.25;2.25;;;;;13.18;67.17;100776.19;6341098;22;45407;-89
2021/12/29 04:41:22;;;;;;;;;5.00;3.25;;;;;13.16;67.23;100778.91;6312760;22;45229;-87
2021/12/29 04:43:48;;;;;;;;;7.50;4.75;;;;;13.16;67.03;100774.47;6341375;22;45207;-86
2021/12/29 04:46:16;;;;;;;;;6.00;3.00;;;;;13.15;67.25;100774.56;6340999;22;45580;-91
2021/12/29 04:48:49;;;;;;;;;5.50;2.25;;;;;13.14;66.79;100765.78;6341166;22;45420;-87
2021/12/29 04:51:22;;;;;;;;;3.75;3.75;;;;;13.12;67.01;100761.47;6340903;22;45575;-87
2021/12/29 04:53:48;;;;;;;;;4.75;3.00;;;;;13.13;67.51;100764.06;6341605;22;45330;-87
2021/12/29 04:56:15;;;;;;;;;5.00;4.00;;;;;13.11;67.56;100757.97;6341172;22;45139;-87
2021/12/29 04:58:41;;;;;;;;;5.50;4.00;;;;;13.11;67.64;100754.50;6341218;22;46057;-84
2021/12/29 05:01:06;;;;;;;;;5.00;2.50;;;;;13.10;67.86;100755.41;6341044;22;45161;-84
2021/12/29 05:03:31;;;;;;;;;2.75;2.75;;;;;13.08;67.93;100752.84;6341271;22;45120;-89
2021/12/29 05:08:31;;;;;;;;;6.00;3.75;;;;;13.11;68.24;100741.31;6340731;22;45167;-92
2021/12/29 05:10:59;;;;;;;;;5.00;2.75;;;;;13.10;67.96;100739.59;6317284;22;45165;-86
2021/12/29 05:13:27;;;;;;;;;3.75;2.00;;;;;13.09;68.10;100740.53;6312716;22;45262;-86
2021/12/29 05:15:52;;;;;;;;;2.50;1.50;;;;;13.12;67.96;100743.00;6340776;22;45353;-90
2021/12/29 05:18:18;;;;;;;;;2.50;2.50;;;;;13.09;68.15;100733.44;6312742;22;47835;-92
2021/12/29 05:20:43;;;;;;;;;7.25;3.25;;;;;13.09;68.33;100730.81;6340332;22;45081;-91
2021/12/29 05:23:10;;;;;;;;;2.50;2.50;;;;;13.09;68.45;100725.53;6341545;22;45180;-92
2021/12/29 05:25:35;;;;;;;;;2.00;2.00;;;;;13.10;68.32;100721.13;6312907;22;46935;-91
2021/12/29 05:28:01;;;;;;;;;3.75;3.75;;;;;13.11;68.29;100725.47;6341173;22;45300;-92
2021/12/29 05:30:27;;;;;;;;;4.25;3.50;;;;;13.08;68.63;100715.06;6340573;22;45161;-88
2021/12/29 05:32:52;;;;;;;;;5.50;3.50;;;;;13.10;68.61;100729.03;6340602;22;45244;-87
2021/12/29 05:35:17;;;;;;;;;6.25;3.50;;;;;13.10;68.35;100721.97;6340941;22;45194;-85
2021/12/29 05:37:43;;;;;;;;;2.75;2.75;;;;;13.09;68.72;100716.78;6340816;22;45475;-87
2021/12/29 05:40:10;;;;;;;;;6.50;5.50;;;;;13.11;68.72;100715.75;6340820;22;45199;-95
2021/12/29 05:42:36;;;;;;;;;5.25;3.75;;;;;13.10;68.83;100710.56;6318076;22;45280;-92
2021/12/29 05:45:07;;;;;;;;;8.25;3.50;;;;;13.09;68.70;100712.34;6312731;22;46630;-84
2021/12/29 05:47:33;;;;;;;;;4.25;4.25;;;;;13.04;68.99;100706.41;6340379;22;46670;-83
2021/12/29 05:49:58;;;;;;;;;6.50;4.50;;;;;13.04;68.77;100719.59;6340299;22;45278;-84
2021/12/29 05:52:24;;;;;;;;;4.00;4.00;;;;;13.02;69.25;100706.47;6340390;22;45518;-84
2021/12/29 05:54:49;;;;;;;;;4.25;4.25;;;;;13.03;69.03;100700.28;6340063;22;45362;-84
2021/12/29 05:57:15;;;;;;;;;4.75;3.50;;;;;13.02;69.21;100701.19;6340803;22;45442;-85
2021/12/29 05:59:40;;;;;;;;;5.00;5.00;;;;;13.03;69.16;100705.56;6340694;22;45243;-84
2021/12/29 06:02:05;;;;;;;;;5.50;3.50;;;;;13.03;69.39;100692.38;6340554;22;45285;-84
2021/12/29 06:04:31;;;;;;;;;4.00;4.00;;;;;13.03;69.37;100691.50;6340593;22;45348;-84
2021/12/29 06:06:57;;;;;;;;;4.00;4.00;;;;;13.02;69.75;100695.94;6340237;22;45353;-84
2021/12/29 06:09:22;;;;;;;;;4.25;3.25;;;;;13.02;69.64;100698.56;6340432;22;45287;-85
2021/12/29 06:11:48;;;;;;;;;6.75;4.50;;;;;13.02;69.56;100692.41;6339770;22;45411;-84
2021/12/29 06:14:13;;;;;;;;;6.75;5.75;;;;;13.01;69.66;100685.44;6339141;22;45405;-85
2021/12/29 06:16:39;;;;;;;;;4.75;4.00;;;;;13.01;69.77;100686.28;6338677;22;45222;-88
2021/12/29 06:19:04;;;;;;;;;5.00;5.00;;;;;13.00;69.50;100687.22;6339009;22;45245;-88
2021/12/29 06:21:30;;;;;;;;;3.25;3.25;;;;;13.00;69.84;100683.72;6310822;22;45227;-88
2021/12/29 06:23:55;;;;;;;;;3.50;3.50;;;;;13.02;69.84;100689.78;6338825;22;45236;-87
2021/12/29 06:26:21;;;;;;;;;7.00;7.00;;;;;13.00;69.82;100689.88;6338863;22;45324;-84
2021/12/29 06:28:46;;;;;;;;;7.00;4.00;;;;;12.99;69.96;100696.06;6339098;22;45251;-84
2021/12/29 06:31:12;;;;;;;;;5.75;5.25;;;;;13.00;69.66;100700.41;6340279;22;45156;-87
2021/12/29 06:33:37;;;;;;;;;5.50;4.50;;;;;13.01;69.92;100696.84;6312471;22;45743;-86
2021/12/29 06:36:03;;;;;;;;;5.75;5.75;;;;;13.01;69.95;100698.63;6340024;22;45415;-87
2021/12/29 06:38:28;;;;;;;;;4.50;4.50;;;;;13.01;69.40;100699.47;6340650;22;45389;-87
2021/12/29 06:40:54;;;;;;;;;4.25;4.25;;;;;13.01;70.12;100703.91;6340683;22;45429;-86
2021/12/29 06:43:19;;;;;;;;;5.50;4.00;;;;;13.00;70.05;100707.47;6340472;22;45301;-86
2021/12/29 06:45:44;;;;;;;;;6.25;4.50;;;;;13.01;70.12;100699.47;6311605;22;46023;-86
2021/12/29 06:48:10;;;;;;;;;6.50;5.25;;;;;13.03;70.05;100700.28;6340448;22;45308;-86
2021/12/29 06:50:36;;;;;;;;;7.25;6.00;;;;;13.01;70.22;100701.28;6340527;22;45317;-86
2021/12/29 06:53:01;;;;;;;;;4.50;4.50;;;;;13.00;70.13;100703.06;6339821;22;45369;-86
2021/12/29 06:55:27;;;;;;;;;5.50;4.50;;;;;12.99;70.28;100703.97;6339818;22;45318;-82
2021/12/29 06:57:52;;;;;;;;;6.75;6.00;;;;;12.99;70.30;100703.13;6312223;22;45368;-82
2021/12/29 07:00:19;;;;;;;;;6.75;5.75;;;;;13.02;70.28;100703.84;6340567;22;45450;-82
2021/12/29 07:02:45;;;;;;;;;7.25;6.50;;;;;12.98;70.34;100694.34;6339934;22;45236;-81
2021/12/29 07:05:11;;;;;;;;;7.75;6.75;;;;;13.01;70.33;100698.63;6340063;22;45347;-81
2021/12/29 07:07:36;;;;;;;;;4.50;4.50;;;;;13.01;70.46;100701.28;6312095;22;45263;-81
2021/12/29 07:10:04;;;;;;;;;5.75;4.75;;;;;13.00;70.23;100699.56;6340211;22;45122;-81
2021/12/29 07:12:29;;;;;;;;;7.25;6.00;;;;;12.98;70.62;100694.34;6340256;22;45364;-81
2021/12/29 07:14:55;;;;;;;;;7.50;6.00;;;;;13.02;70.48;100695.06;6339584;22;46120;-81
2021/12/29 07:17:20;;;;;;;;;6.50;6.50;;;;;13.03;70.52;100702.06;6340716;22;45611;-82
2021/12/29 07:19:46;;;;;;;;;7.50;6.50;;;;;13.01;70.34;100696.84;6341165;22;45215;-81
2021/12/29 07:22:11;;;;;;;;;5.25;4.75;;;;;13.01;70.75;100693.38;6341114;22;45425;-81
2021/12/29 07:24:37;;;;;;;;;7.50;6.00;;;;;13.01;70.73;100688.91;6341298;22;45255;-81
2021/12/29 07:27:03;;;;;;;;;7.00;5.50;;;;;13.02;70.93;100693.28;6341256;22;45255;-81
2021/12/29 07:29:29;;;;;;;;;7.75;7.00;;;;;13.01;70.59;100696.84;6341333;22;45488;-82
2021/12/29 07:31:57;;;;;;;;;7.00;7.00;;;;;13.02;70.78;100701.19;6341526;22;45417;-82
2021/12/29 07:34:24;;;;;;;;;9.50;5.50;;;;;13.02;70.57;100695.06;6341574;22;46493;-82
2021/12/29 07:36:50;;;;;;;;;6.75;6.75;;;;;13.01;70.69;100698.63;6341195;22;45290;-82
2021/12/29 07:39:15;;;;;;;;;9.50;7.50;;;;;13.05;70.80;100695.78;6341727;22;45237;-81
2021/12/29 07:41:42;;;;;;;;;5.75;4.75;;;;;13.03;70.97;100696.78;6341500;22;45397;-82
2021/12/29 07:44:16;;;;;;;;;6.25;5.00;;;;;13.03;70.59;100700.28;6341453;22;46151;-81
2021/12/29 07:46:43;;;;;;;;;7.25;5.75;;;;;13.03;70.38;100702.06;6341161;22;45407;-81
2021/12/29 07:49:09;;;;;;;;;6.25;5.75;;;;;13.04;70.65;100699.34;6341742;22;45159;-82
2021/12/29 07:51:34;;;;;;;;;8.50;6.50;;;;;13.04;71.15;100707.25;6341296;22;45435;-82
2021/12/29 07:54:00;;;;;;;;;7.00;5.50;;;;;13.04;70.82;100709.91;6313317;22;46927;-82
2021/12/29 07:56:27;;;;;;;;;7.25;6.25;;;;;13.07;71.04;100718.59;6341612;22;45158;-82
2021/12/29 07:58:52;;;;;;;;;7.25;7.25;;;;;13.05;71.20;100716.91;6341683;22;45163;-82
2021/12/29 08:01:18;;;;;;;;;6.75;6.25;;;;;13.07;71.19;100718.59;6341437;22;45148;-82
2021/12/29 08:03:44;;;;;;;;;9.25;7.25;;;;;13.06;71.14;100709.84;6340703;22;45314;-82
2021/12/29 08:06:09;;;;;;;;;7.75;5.75;;;;;13.07;71.22;100713.31;6312442;22;45344;-82
2021/12/29 08:08:35;;;;;;;;;6.75;6.75;;;;;13.07;71.30;100715.97;6341280;22;45568;-82
2021/12/29 08:11:01;;;;;;;;;6.75;5.75;;;;;13.08;71.15;100722.97;6341218;22;45298;-82
2021/12/29 08:13:26;;;;;;;;;9.00;7.75;;;;;13.11;71.01;100721.03;6341319;22;46332;-82
2021/12/29 08:15:51;;;;;;;;;7.75;6.50;;;;;13.11;71.27;100734.22;6340948;22;45336;-82
2021/12/29 08:18:17;;;;;;;;;9.50;6.75;;;;;13.14;71.18;100730.59;6341323;22;45778;-82
2021/12/29 08:20:43;;;;;;;;;7.50;6.00;;;;;13.13;70.87;100727.13;6340457;22;45266;-82
2021/12/29 08:23:10;;;;;;;;;10.00;8.00;;;;;13.13;71.13;100734.19;6341593;22;46115;-82
2021/12/29 08:25:37;;;;;;;;;4.00;3.25;;;;;13.15;71.45;100740.25;6340702;22;45160;-82
2021/12/29 08:28:04;;;;;;;;;10.50;8.00;;;;;13.17;71.46;100743.66;6341189;22;45163;-81
2021/12/29 08:30:30;;;;;;;;;7.25;7.25;;;;;13.18;71.57;100745.41;6340876;22;45628;-81
2021/12/29 08:32:55;;;;;;;;;8.00;7.50;;;;;13.21;71.58;100752.31;6341330;22;46222;-82
2021/12/29 08:35:21;;;;;;;;;9.00;9.00;;;;;13.20;71.31;100751.47;6341041;22;45196;-81
2021/12/29 08:37:47;;;;;;;;;7.50;6.25;;;;;13.21;71.49;100752.31;6341437;22;45216;-81
2021/12/29 08:40:14;;;;;;;;;11.00;9.50;;;;;13.23;71.60;100751.34;6341301;22;45413;-81
2021/12/29 08:42:40;;;;;;;;;9.00;9.00;;;;;13.25;71.46;100751.25;6341065;22;46603;-82
2021/12/29 08:45:08;;;;;;;;;7.75;7.75;;;;;13.27;71.95;100752.03;6341178;22;45209;-81
2021/12/29 08:47:33;;;;;;;;;10.75;10.50;;;;;13.27;71.63;100747.63;6312693;22;45746;-82
2021/12/29 08:49:59;;;;;;;;;8.00;8.00;;;;;13.29;71.77;100744.91;6340873;22;45319;-82
2021/12/29 08:52:24;;;;;;;;;8.75;8.75;;;;;13.30;71.57;100740.50;6333474;22;45588;-82
2021/12/29 08:54:50;;;;;;;;;8.75;8.50;;;;;13.34;71.70;100742.91;6332734;22;45374;-82
2021/12/29 08:57:15;;;;;;;;;10.25;9.50;;;;;13.34;71.89;100731.50;6338709;22;45219;-82
2021/12/29 08:59:41;;;;;;;;;10.50;9.50;;;;;13.37;72.08;100737.50;6310464;22;45368;-83
2021/12/29 09:02:06;;;;;;;;;12.00;11.75;;;;;13.38;71.93;100736.56;6339518;22;46149;-82
2021/12/29 09:04:32;;;;;;;;;12.50;9.50;;;;;13.39;72.02;100735.66;6340601;22;45325;-82
2021/12/29 09:06:57;;;;;;;;;6.50;5.25;;;;;13.43;71.82;100743.44;6339114;22;45409;-82
2021/12/29 09:09:22;;;;;;;;;9.50;9.50;;;;;13.46;72.12;100732.72;6340591;22;45340;-82
2021/12/29 09:11:48;;;;;;;;;12.00;11.25;;;;;13.47;71.73;100731.81;6340259;22;46061;-82
2021/12/29 09:14:13;;;;;;;;;10.00;9.00;;;;;13.50;72.17;100731.69;6339277;22;45227;-82
2021/12/29 09:16:39;;;;;;;;;11.50;8.75;;;;;13.51;72.31;100733.38;6340443;22;45157;-82
2021/12/29 09:19:10;;;;;;;;;8.00;8.00;;;;;13.56;72.22;100730.53;6340228;22;45207;-81
2021/12/29 09:21:38;;;;;;;;;8.50;8.25;;;;;13.55;72.12;100726.19;6339569;22;45400;-82
2021/12/29 09:24:04;;;;;;;;;10.00;8.50;;;;;13.60;72.25;100726.88;6340875;22;45221;-82
2021/12/29 09:26:29;;;;;;;;;13.50;9.50;;;;;13.61;72.48;100724.13;6341982;22;45199;-82
2021/12/29 09:28:55;;;;;;;;;12.00;10.00;;;;;13.64;72.25;100727.56;6339469;22;45740;-82
2021/12/29 09:31:20;;;;;;;;;10.50;8.50;;;;;13.67;72.60;100732.72;6341289;22;45316;-82
2021/12/29 09:33:46;;;;;;;;;12.25;11.00;;;;;13.70;72.34;100749.25;6341109;22;45165;-82
2021/12/29 09:36:11;;;;;;;;;11.25;11.25;;;;;13.70;72.57;100746.63;6339622;22;45648;-82
2021/12/29 09:38:40;;;;;;;;;11.25;11.25;;;;;13.75;72.66;100751.72;6340554;22;45233;-82
2021/12/29 09:41:08;;;;;;;;;7.75;7.75;;;;;13.75;72.49;100735.88;6340538;22;45524;-82
2021/12/29 09:43:35;;;;;;;;;9.50;9.50;;;;;13.79;72.36;100734.78;6338538;22;45338;-82
2021/12/29 09:46:00;;;;;;;;;11.00;10.75;;;;;13.83;72.55;100730.19;6340389;22;45182;-82
2021/12/29 09:48:26;;;;;;;;;13.00;12.00;;;;;13.84;72.71;100734.56;6340270;22;45620;-82
2021/12/29 09:50:52;;;;;;;;;11.50;9.75;;;;;13.87;72.76;100725.63;6339075;22;45249;-82
2021/12/29 09:53:19;;;;;;;;;15.25;12.50;;;;;13.89;72.91;100727.28;6340996;22;45509;-82
2021/12/29 09:55:46;;;;;;;;;10.00;9.75;;;;;13.92;72.64;100728.94;6340063;22;45447;-82
2021/12/29 09:58:18;;;;;;;;;11.50;9.50;;;;;13.93;72.62;100723.56;6339567;22;45407;-82
2021/12/29 10:00:54;;;;;;;;;13.25;10.25;;;;;13.97;72.90;100729.56;6312513;22;46883;-82
2021/12/29 10:03:21;;;;;;;;;13.25;12.50;;;;;13.98;72.76;100736.53;6340674;22;45703;-87
2021/12/29 10:05:50;;;;;;;;;11.50;10.50;;;;;14.00;72.80;100734.69;6339954;22;45279;-81
2021/12/29 10:08:22;;;;;;;;;10.25;10.00;;;;;14.03;72.95;100733.69;6341670;22;45214;-82
2021/12/29 10:10:51;;;;;;;;;12.50;10.75;;;;;14.03;73.01;100725.75;6341689;22;45610;-82
2021/12/29 10:13:18;;;;;;;;;13.75;11.75;;;;;14.06;73.16;100723.84;6341493;22;45396;-82
2021/12/29 10:15:47;;;;;;;;;11.50;11.50;;;;;14.10;72.99;100728.97;6341653;22;45494;-82
2021/12/29 10:18:19;;;;;;;;;15.50;14.50;;;;;14.12;73.03;100733.28;6341520;22;45506;-82
2021/12/29 10:20:46;;;;;;;;;12.25;11.00;;;;;14.17;73.09;100730.41;6340246;22;45441;-82
2021/12/29 10:23:17;;;;;;;;;13.75;11.25;;;;;14.20;73.24;100734.69;6341737;22;45625;-82
2021/12/29 10:25:43;;;;;;;;;15.75;9.50;;;;;14.23;73.04;100737.16;6341936;22;45356;-82
2021/12/29 10:28:22;;;;;;;;;9.50;9.50;;;;;14.27;73.38;100739.56;6341327;22;45361;-82
2021/12/29 10:30:56;;;;;;;;;14.25;9.00;;;;;14.30;73.34;100741.22;6341196;22;45673;-83
2021/12/29 10:33:22;;;;;;;;;11.25;11.25;;;;;14.34;73.30;100747.22;6313700;22;45367;-82
2021/12/29 10:35:47;;;;;;;;;10.75;9.50;;;;;14.37;73.47;100742.63;6341301;22;45346;-83
2021/12/29 10:38:22;;;;;;;;;10.25;8.25;;;;;14.40;73.45;100741.63;6341152;22;45307;-82
2021/12/29 10:40:49;;;;;;;;;7.00;4.75;;;;;14.47;73.41;100748.31;6342203;22;45575;-82
2021/12/29 10:43:16;;;;;;;;;9.25;6.00;;;;;14.49;73.64;100742.97;6341680;22;45483;-81
2021/12/29 10:45:44;;;;;;;;;7.25;6.25;;;;;14.53;73.49;100747.16;6340870;22;45215;-81
2021/12/29 10:48:21;;;;;;;;;6.50;5.00;;;;;14.57;73.65;100743.41;6342310;22;45491;-82
2021/12/29 10:51:12;;;;;;;;;5.25;5.25;;;;;14.64;73.93;100749.28;6340654;22;46001;-82
2021/12/29 10:53:38;;;;;;;;;3.75;3.75;;;;;14.63;74.27;100747.56;6333055;22;45297;-82
2021/12/29 10:56:05;;;;;;;;;3.75;3.75;;;;;14.67;74.11;100754.41;6342305;22;45424;-82
2021/12/29 10:58:34;;;;;;;;;6.00;4.25;;;;;14.71;74.09;100758.63;6341000;22;45281;-82
2021/12/29 11:01:09;;;;;;;;;8.50;5.75;;;;;14.75;74.03;100761.94;6340562;22;46248;-82
2021/12/29 11:03:42;;;;;;;;;4.50;4.50;;;;;14.82;74.17;100770.44;6341575;22;45163;-82
2021/12/29 11:06:13;;;;;;;;;1.50;1.50;;;;;14.83;74.18;100759.78;6340737;22;45312;-83
2021/12/29 11:09:04;;;;;;;;;3.50;3.50;;;;;14.89;74.18;100769.22;6339495;22;45231;-82
2021/12/29 11:11:37;;;;;;;;;3.50;3.00;;;;;14.91;74.26;100769.16;6333162;22;46440;-82
2021/12/29 11:14:28;;;;;;;;;1.25;1.25;;;;;14.97;74.01;100766.19;6339061;22;45476;-81
2021/12/29 11:17:08;;;;;;;;;3.50;2.25;;;;;14.98;74.15;100762.63;6341190;22;45412;-82
2021/12/29 11:19:35;;;;;;;;;2.00;2.00;;;;;15.03;74.25;100763.25;6340789;22;45626;-81
2021/12/29 11:22:06;;;;;;;;;3.75;1.00;;;;;15.05;75.12;100753.41;6311197;22;45916;-82
2021/12/29 11:24:32;;;;;;;;;2.75;2.00;;;;;15.06;74.53;100760.41;6341160;22;45283;-82
2021/12/29 11:26:59;;;;;;;;;2.75;0.75;;;;;15.12;75.06;100763.69;6341637;22;45337;-82